Time;durP1;ratioP1;P1;durP2;ratioP2;P2;SDS_P1;SDS_P2;PMS_P1;PMS_P2;Temp;Humidity;BMP_temperature;BMP_pressure;BME280_temperature;BME280_humidity;BME280_pressure;Samples;Min_cycle;Max_cycle;Signal;HPM_P1;HPM_P2
2021/10/14 00:00:37;;;;;;;10.63;5.78;;;9.80;99.90;;;;;;6182834;23;20052;-86
2021/10/14 00:03:07;;;;;;;15.48;8.35;;;9.80;99.90;;;;;;6182729;23;20004;-85
2021/10/14 00:05:33;;;;;;;15.38;7.00;;;9.80;99.90;;;;;;6182905;23;20001;-86
2021/10/14 00:08:00;;;;;;;19.02;8.48;;;9.80;99.90;;;;;;6182981;23;20007;-86
2021/10/14 00:10:26;;;;;;;16.13;7.70;;;9.80;99.90;;;;;;6156524;23;20031;-85
2021/10/14 00:12:52;;;;;;;21.35;9.15;;;9.80;99.90;;;;;;6182756;23;20001;-85
2021/10/14 00:15:18;;;;;;;19.63;9.52;;;9.80;99.90;;;;;;6182478;23;20040;-86
2021/10/14 00:17:44;;;;;;;25.05;11.68;;;9.80;99.90;;;;;;6182434;23;20124;-85
2021/10/14 00:20:10;;;;;;;28.67;12.00;;;9.80;99.90;;;;;;6182715;23;20003;-86
2021/10/14 00:22:36;;;;;;;29.83;12.80;;;9.70;99.90;;;;;;6155694;23;20016;-86
2021/10/14 00:25:02;;;;;;;20.85;10.60;;;9.70;99.90;;;;;;6182511;23;20346;-86
2021/10/14 00:27:31;;;;;;;20.95;9.13;;;9.70;99.90;;;;;;6182446;23;20005;-86
2021/10/14 00:29:57;;;;;;;15.43;7.47;;;9.60;99.90;;;;;;6182322;23;20506;-86
2021/10/14 00:32:22;;;;;;;9.15;4.75;;;9.60;99.90;;;;;;6182228;23;19997;-86
2021/10/14 00:34:48;;;;;;;10.73;3.90;;;9.60;99.90;;;;;;6182457;23;20001;-86
2021/10/14 00:37:14;;;;;;;7.22;3.08;;;9.50;99.90;;;;;;6182331;23;20338;-86
2021/10/14 00:39:40;;;;;;;6.95;3.05;;;9.50;99.90;;;;;;6156349;23;20035;-86
2021/10/14 00:42:06;;;;;;;6.95;2.70;;;9.50;99.90;;;;;;6182859;23;20442;-85
2021/10/14 00:44:46;;;;;;;7.18;2.88;;;9.50;99.90;;;;;;6182527;23;20445;-86
2021/10/14 00:47:11;;;;;;;10.23;3.70;;;9.50;99.90;;;;;;6182483;23;20331;-86
2021/10/14 00:49:37;;;;;;;14.98;6.88;;;9.40;99.90;;;;;;6155738;23;20032;-86
2021/10/14 00:52:03;;;;;;;11.63;4.85;;;9.40;99.90;;;;;;6155695;23;20008;-86
2021/10/14 00:54:29;;;;;;;12.07;5.25;;;9.40;99.90;;;;;;6182768;23;20021;-86
2021/10/14 00:56:55;;;;;;;9.02;4.50;;;9.40;99.90;;;;;;6182409;23;20032;-85
2021/10/14 00:59:21;;;;;;;9.55;4.30;;;9.40;99.90;;;;;;6182279;23;20009;-86
2021/10/14 01:01:47;;;;;;;13.25;5.90;;;9.40;99.90;;;;;;6182204;23;20059;-85
2021/10/14 01:04:13;;;;;;;13.68;4.78;;;9.30;99.90;;;;;;6182534;23;20084;-86
2021/10/14 01:06:39;;;;;;;13.52;5.38;;;9.30;99.90;;;;;;6182131;23;20004;-86
2021/10/14 01:09:04;;;;;;;10.93;5.00;;;9.30;99.90;;;;;;6182091;23;20012;-85
2021/10/14 01:11:30;;;;;;;13.13;5.00;;;9.30;99.90;;;;;;6181969;23;20334;-85
2021/10/14 01:13:56;;;;;;;11.15;4.13;;;9.20;99.90;;;;;;6155688;23;20008;-86
2021/10/14 01:16:22;;;;;;;12.80;5.05;;;9.20;99.90;;;;;;6181686;23;20001;-86
2021/10/14 01:18:47;;;;;;;8.73;4.50;;;9.20;99.90;;;;;;6181888;23;20036;-86
2021/10/14 01:21:13;;;;;;;9.00;3.90;;;9.20;99.90;;;;;;6182023;23;19997;-86
2021/10/14 01:23:40;;;;;;;10.18;3.90;;;9.10;99.90;;;;;;6182038;23;20001;-86
2021/10/14 01:26:06;;;;;;;9.52;3.05;;;9.00;99.90;;;;;;6181316;23;20005;-88
2021/10/14 01:28:32;;;;;;;8.77;3.30;;;9.00;99.90;;;;;;6181711;23;20025;-88
2021/10/14 01:30:58;;;;;;;9.73;4.60;;;9.10;99.90;;;;;;6155539;23;20281;-87
2021/10/14 01:33:24;;;;;;;8.43;3.88;;;9.00;99.90;;;;;;6155112;23;20005;-85
2021/10/14 01:35:50;;;;;;;9.52;3.58;;;9.00;99.90;;;;;;6155658;23;20001;-86
2021/10/14 01:38:17;;;;;;;9.50;4.07;;;8.90;99.90;;;;;;6155400;23;20358;-86
2021/10/14 01:40:44;;;;;;;10.38;3.88;;;8.90;99.90;;;;;;6182010;23;19997;-86
2021/10/14 01:43:14;;;;;;;10.13;3.47;;;8.90;99.90;;;;;;6155446;23;20462;-85
2021/10/14 01:45:40;;;;;;;10.57;3.80;;;8.90;99.90;;;;;;6155796;23;20012;-88
2021/10/14 01:48:06;;;;;;;9.27;4.03;;;8.90;99.90;;;;;;6181319;23;20560;-88
2021/10/14 01:50:32;;;;;;;11.88;3.80;;;8.90;99.90;;;;;;6181852;23;20029;-87
2021/10/14 01:52:58;;;;;;;8.40;3.35;;;8.80;99.90;;;;;;6181967;23;20020;-86
2021/10/14 01:55:23;;;;;;;9.13;3.72;;;8.80;99.90;;;;;;6181812;23;20032;-85
2021/10/14 01:57:49;;;;;;;9.88;3.47;;;8.80;99.90;;;;;;6181539;23;20435;-86
2021/10/14 02:00:15;;;;;;;7.95;3.60;;;8.90;99.90;;;;;;6182627;23;20415;-86
2021/10/14 02:02:40;;;;;;;7.30;3.20;;;8.80;99.90;;;;;;6155622;23;20002;-85
2021/10/14 02:05:07;;;;;;;9.15;3.33;;;8.80;99.90;;;;;;6181997;23;20005;-86
2021/10/14 02:07:33;;;;;;;8.77;3.22;;;8.80;99.90;;;;;;6155448;23;20005;-86
2021/10/14 02:09:59;;;;;;;9.15;3.03;;;8.80;99.90;;;;;;6182229;23;20048;-86
2021/10/14 02:12:25;;;;;;;6.30;3.00;;;8.80;99.90;;;;;;6182070;23;20080;-88
2021/10/14 02:14:51;;;;;;;6.32;2.63;;;8.80;99.90;;;;;;6181990;23;19997;-86
2021/10/14 02:17:17;;;;;;;7.80;2.85;;;8.80;99.90;;;;;;6182098;23;20013;-86
2021/10/14 02:19:43;;;;;;;6.40;2.80;;;8.70;99.90;;;;;;6182599;23;20005;-86
2021/10/14 02:22:09;;;;;;;7.82;2.88;;;8.70;99.90;;;;;;6181842;23;20001;-85
2021/10/14 02:24:34;;;;;;;10.93;3.90;;;8.70;99.90;;;;;;6181968;23;20011;-85
2021/10/14 02:27:00;;;;;;;5.72;2.75;;;8.70;99.90;;;;;;6181865;23;20007;-85
2021/10/14 02:29:26;;;;;;;5.60;2.85;;;8.70;99.90;;;;;;6183861;23;20076;-88
2021/10/14 02:31:52;;;;;;;7.35;2.85;;;8.70;99.90;;;;;;6184150;23;20176;-86
2021/10/14 02:34:17;;;;;;;12.60;3.05;;;8.70;99.90;;;;;;6157256;23;20457;-85
2021/10/14 02:36:43;;;;;;;8.23;2.95;;;8.70;99.90;;;;;;6183967;23;20048;-86
2021/10/14 02:39:09;;;;;;;7.68;2.70;;;8.70;99.90;;;;;;6183630;23;20020;-88
2021/10/14 02:41:34;;;;;;;4.65;2.63;;;8.70;99.90;;;;;;6157479;23;20430;-86
2021/10/14 02:44:00;;;;;;;5.93;2.80;;;8.70;99.90;;;;;;6183515;23;20039;-86
2021/10/14 02:46:26;;;;;;;6.65;3.10;;;8.60;99.90;;;;;;6183782;23;20043;-86
2021/10/14 02:48:52;;;;;;;11.20;3.67;;;8.60;99.90;;;;;;6183341;23;20061;-85
2021/10/14 02:51:18;;;;;;;6.88;2.83;;;8.50;99.90;;;;;;6183826;23;20435;-85
2021/10/14 02:53:43;;;;;;;7.22;2.70;;;8.60;99.90;;;;;;6184700;23;20001;-86
2021/10/14 02:56:11;;;;;;;5.72;2.28;;;8.50;99.90;;;;;;6158794;23;20037;-86
2021/10/14 02:58:36;;;;;;;8.20;2.88;;;8.50;99.90;;;;;;6184719;23;20376;-85
2021/10/14 03:01:02;;;;;;;9.15;2.90;;;8.50;99.90;;;;;;6184895;23;20001;-85
2021/10/14 03:03:28;;;;;;;7.18;2.60;;;8.50;99.90;;;;;;6156943;23;20018;-85
2021/10/14 03:05:53;;;;;;;8.38;2.80;;;8.50;99.90;;;;;;6183316;23;20506;-85
2021/10/14 03:08:19;;;;;;;9.77;3.10;;;8.50;99.90;;;;;;6183383;23;20036;-85
2021/10/14 03:10:45;;;;;;;6.97;2.67;;;8.40;99.90;;;;;;6183421;23;19997;-85
2021/10/14 03:13:10;;;;;;;6.72;2.30;;;8.40;99.90;;;;;;6183538;23;20007;-86
2021/10/14 03:15:36;;;;;;;6.88;3.33;;;8.40;99.90;;;;;;6183264;23;20005;-87
2021/10/14 03:18:01;;;;;;;7.20;2.70;;;8.30;99.90;;;;;;6183126;23;20434;-87
2021/10/14 03:20:27;;;;;;;9.20;3.53;;;8.30;99.90;;;;;;6156832;23;20084;-87
2021/10/14 03:22:53;;;;;;;11.23;3.03;;;8.30;99.90;;;;;;6156648;23;20071;-87
2021/10/14 03:25:19;;;;;;;9.82;2.80;;;8.40;99.90;;;;;;6183248;23;20029;-87
2021/10/14 03:27:44;;;;;;;5.63;2.88;;;8.40;99.90;;;;;;6182728;23;20490;-85
2021/10/14 03:30:10;;;;;;;10.15;3.45;;;8.40;99.90;;;;;;6183289;23;20001;-87
2021/10/14 03:32:36;;;;;;;5.75;2.63;;;8.40;99.90;;;;;;6156742;23;20016;-87
2021/10/14 03:35:01;;;;;;;9.25;2.85;;;8.40;99.90;;;;;;6156721;23;20009;-87
2021/10/14 03:37:27;;;;;;;6.50;2.75;;;8.40;99.90;;;;;;6182640;23;20005;-87
2021/10/14 03:39:53;;;;;;;9.40;3.20;;;8.40;99.90;;;;;;6183039;23;20005;-87
2021/10/14 03:42:20;;;;;;;10.05;2.90;;;8.30;99.90;;;;;;6182959;23;20072;-87
2021/10/14 03:44:46;;;;;;;10.00;3.00;;;8.40;99.90;;;;;;6183436;23;20001;-85
2021/10/14 03:47:12;;;;;;;8.55;3.03;;;8.40;99.90;;;;;;6183002;23;20023;-85
2021/10/14 03:49:37;;;;;;;5.72;2.65;;;8.40;99.90;;;;;;6156503;23;20017;-85
2021/10/14 03:52:03;;;;;;;7.13;3.10;;;8.30;99.90;;;;;;6183043;23;20139;-85
2021/10/14 03:54:29;;;;;;;9.05;2.88;;;8.30;99.90;;;;;;6182695;23;20013;-85
2021/10/14 03:56:55;;;;;;;6.93;2.95;;;8.30;99.90;;;;;;6182746;23;20001;-85
2021/10/14 03:59:20;;;;;;;6.43;2.83;;;8.20;99.90;;;;;;6182193;23;20009;-85
2021/10/14 04:01:46;;;;;;;7.65;2.53;;;8.30;99.90;;;;;;6182480;23;20008;-86
2021/10/14 04:04:11;;;;;;;8.23;2.58;;;8.10;99.90;;;;;;6182953;23;20027;-85
2021/10/14 04:06:37;;;;;;;7.78;2.58;;;8.10;99.90;;;;;;6182698;23;20005;-85
2021/10/14 04:09:03;;;;;;;7.63;2.70;;;8.20;99.90;;;;;;6183292;23;20005;-85
2021/10/14 04:11:28;;;;;;;7.38;2.70;;;8.20;99.90;;;;;;6182744;23;20005;-85
2021/10/14 04:13:54;;;;;;;8.45;2.50;;;8.20;99.90;;;;;;6182696;23;20051;-85
2021/10/14 04:16:20;;;;;;;6.88;2.40;;;8.20;99.90;;;;;;6182150;23;20036;-85
2021/10/14 04:18:45;;;;;;;8.00;2.90;;;8.20;99.90;;;;;;6182641;23;20125;-85
2021/10/14 04:21:11;;;;;;;7.20;2.35;;;8.20;99.90;;;;;;6182676;23;20059;-85
2021/10/14 04:23:42;;;;;;;6.80;2.78;;;8.10;99.90;;;;;;6156454;23;20013;-85
2021/10/14 04:26:07;;;;;;;7.20;2.83;;;8.10;99.90;;;;;;6156454;23;20008;-85
2021/10/14 04:28:33;;;;;;;8.40;2.80;;;8.10;99.90;;;;;;6155636;23;20378;-85
2021/10/14 04:30:59;;;;;;;9.13;3.10;;;8.10;99.90;;;;;;6156229;23;20084;-86
2021/10/14 04:33:25;;;;;;;6.32;2.63;;;8.10;99.90;;;;;;6182416;23;20008;-85
2021/10/14 04:35:51;;;;;;;8.80;2.75;;;8.10;99.90;;;;;;6182952;23;20512;-85
2021/10/14 04:38:17;;;;;;;7.57;2.42;;;8.10;99.90;;;;;;6156235;23;20013;-85
2021/10/14 04:40:43;;;;;;;8.43;2.55;;;8.00;99.90;;;;;;6182664;23;20001;-85
2021/10/14 04:43:09;;;;;;;7.75;2.45;;;8.10;99.90;;;;;;6182648;23;20005;-85
2021/10/14 04:45:34;;;;;;;7.53;2.70;;;8.00;99.90;;;;;;6182783;23;20024;-85
2021/10/14 04:48:00;;;;;;;8.73;2.88;;;8.10;99.90;;;;;;6182127;23;20005;-85
2021/10/14 04:50:26;;;;;;;8.95;3.05;;;8.00;99.90;;;;;;6182673;23;20005;-85
2021/10/14 04:52:52;;;;;;;8.27;2.83;;;8.00;99.90;;;;;;6182630;23;20165;-85
2021/10/14 04:55:17;;;;;;;6.45;2.65;;;8.00;99.90;;;;;;6182625;23;20005;-85
2021/10/14 04:57:43;;;;;;;4.95;2.53;;;8.00;99.90;;;;;;6182369;23;20009;-85
2021/10/14 05:00:09;;;;;;;5.20;2.22;;;8.00;99.90;;;;;;6182570;23;20055;-85
2021/10/14 05:02:35;;;;;;;16.60;3.08;;;8.00;99.90;;;;;;6155967;23;20025;-85
2021/10/14 05:05:01;;;;;;;5.32;2.40;;;8.00;99.90;;;;;;6182608;23;20468;-85
2021/10/14 05:07:27;;;;;;;13.85;2.88;;;8.00;99.90;;;;;;6156048;23;20427;-85
2021/10/14 05:09:52;;;;;;;6.15;2.47;;;8.00;99.90;;;;;;6182408;23;20096;-86
2021/10/14 05:12:20;;;;;;;5.80;2.30;;;8.00;99.90;;;;;;6182909;23;20076;-86
2021/10/14 05:14:46;;;;;;;8.48;2.55;;;8.00;99.90;;;;;;6182554;23;20072;-85
2021/10/14 05:17:12;;;;;;;6.05;2.45;;;8.00;99.90;;;;;;6155629;23;20367;-85
2021/10/14 05:19:37;;;;;;;5.80;2.53;;;8.00;99.90;;;;;;6182539;23;20044;-85
2021/10/14 05:22:03;;;;;;;6.70;2.38;;;8.00;99.90;;;;;;6156126;23;20001;-85
2021/10/14 05:24:29;;;;;;;5.50;2.15;;;8.10;99.90;;;;;;6182549;23;20060;-85
2021/10/14 05:26:55;;;;;;;10.68;2.92;;;8.00;99.90;;;;;;6182403;23;20001;-85
2021/10/14 05:29:20;;;;;;;7.38;2.42;;;8.00;99.90;;;;;;6181845;23;20001;-85
2021/10/14 05:31:46;;;;;;;7.10;2.40;;;8.00;99.90;;;;;;6182365;23;19997;-85
2021/10/14 05:34:12;;;;;;;10.73;2.40;;;8.10;99.90;;;;;;6181966;23;20028;-85
2021/10/14 05:36:37;;;;;;;9.38;2.72;;;8.10;99.90;;;;;;6182115;23;20072;-85
2021/10/14 05:39:03;;;;;;;6.53;2.22;;;8.00;99.90;;;;;;6181967;23;20067;-85
2021/10/14 05:41:29;;;;;;;6.80;2.45;;;8.10;99.90;;;;;;6181810;23;20007;-85
2021/10/14 05:43:55;;;;;;;10.20;2.60;;;8.10;99.90;;;;;;6181880;23;20005;-85
2021/10/14 05:46:20;;;;;;;7.53;2.42;;;8.10;99.90;;;;;;6186725;23;19993;-85
2021/10/14 05:48:46;;;;;;;9.15;2.67;;;8.00;99.90;;;;;;6190322;23;20040;-85
2021/10/14 05:51:12;;;;;;;7.18;2.72;;;8.00;99.90;;;;;;6182145;23;20004;-85
2021/10/14 05:53:37;;;;;;;7.10;2.35;;;8.00;99.90;;;;;;6156562;23;20009;-87
2021/10/14 05:56:03;;;;;;;6.57;2.67;;;7.90;99.90;;;;;;6183858;23;20043;-87
2021/10/14 05:58:29;;;;;;;5.53;2.33;;;7.90;99.90;;;;;;6188832;23;20345;-85
2021/10/14 06:00:56;;;;;;;9.57;2.50;;;7.80;99.90;;;;;;6188212;23;20057;-85
2021/10/14 06:03:22;;;;;;;10.30;3.33;;;7.80;99.90;;;;;;6160577;23;20001;-84
2021/10/14 06:05:48;;;;;;;5.40;2.90;;;7.80;99.90;;;;;;6188777;23;20013;-85
2021/10/14 06:08:13;;;;;;;8.07;2.78;;;7.70;99.90;;;;;;6163336;23;20021;-88
2021/10/14 06:10:39;;;;;;;8.63;3.20;;;7.80;99.90;;;;;;6189803;23;20304;-90
2021/10/14 06:13:06;;;;;;;8.85;2.80;;;7.70;99.90;;;;;;6167526;23;20024;-88
2021/10/14 06:15:33;;;;;;;11.07;3.72;;;7.80;99.90;;;;;;6193701;23;20005;-88
2021/10/14 06:17:59;;;;;;;9.60;3.35;;;7.80;99.90;;;;;;6163710;23;20316;-90
2021/10/14 06:20:24;;;;;;;9.05;3.55;;;7.80;99.90;;;;;;6157424;23;20012;-88
2021/10/14 06:22:50;;;;;;;14.38;3.50;;;7.80;99.90;;;;;;6185042;23;19997;-87
2021/10/14 06:25:16;;;;;;;6.60;2.80;;;7.70;99.90;;;;;;6186566;23;20005;-86
2021/10/14 06:27:42;;;;;;;10.30;3.85;;;7.80;99.90;;;;;;6187483;23;19993;-87
2021/10/14 06:30:08;;;;;;;9.98;3.40;;;7.80;99.90;;;;;;6183276;23;20009;-87
2021/10/14 06:32:33;;;;;;;7.47;3.28;;;7.80;99.90;;;;;;6179247;23;20435;-87
2021/10/14 06:34:59;;;;;;;6.50;3.22;;;7.90;99.90;;;;;;6153665;23;20016;-88
2021/10/14 06:37:25;;;;;;;6.47;2.75;;;7.90;99.90;;;;;;6182857;23;20004;-87
2021/10/14 06:39:50;;;;;;;6.28;2.65;;;7.90;99.90;;;;;;6156860;23;20013;-88
2021/10/14 06:42:16;;;;;;;12.65;2.75;;;7.80;99.90;;;;;;6182895;23;19997;-88
2021/10/14 06:44:42;;;;;;;6.10;2.63;;;7.90;99.90;;;;;;6182329;23;20001;-87
2021/10/14 06:47:07;;;;;;;6.80;2.70;;;8.00;99.90;;;;;;6156624;23;20017;-87
2021/10/14 06:49:33;;;;;;;8.40;2.85;;;8.00;99.90;;;;;;6183511;23;20013;-92
2021/10/14 06:51:59;;;;;;;4.28;2.30;;;8.00;99.90;;;;;;6156832;23;20382;-89
2021/10/14 06:54:24;;;;;;;7.97;2.42;;;8.00;99.90;;;;;;6156719;23;20363;-90
2021/10/14 06:56:50;;;;;;;8.25;3.05;;;8.00;99.90;;;;;;6156914;23;20339;-89
2021/10/14 06:59:16;;;;;;;7.70;3.10;;;8.00;99.90;;;;;;6156097;23;20037;-89
2021/10/14 07:01:42;;;;;;;6.90;2.47;;;8.00;99.90;;;;;;6156608;23;20337;-89
2021/10/14 07:04:07;;;;;;;6.43;3.08;;;8.00;99.90;;;;;;6183202;23;20009;-90
2021/10/14 07:06:33;;;;;;;6.35;2.60;;;8.10;99.90;;;;;;6184696;23;20001;-90
2021/10/14 07:08:59;;;;;;;6.40;2.50;;;8.30;99.90;;;;;;6156325;23;20012;-90
2021/10/14 07:11:32;;;;;;;6.85;2.70;;;8.30;99.90;;;;;;6182973;23;20001;-89
2021/10/14 07:13:58;;;;;;;7.60;2.42;;;8.40;99.90;;;;;;6156152;23;20446;-89
2021/10/14 07:16:25;;;;;;;6.88;2.28;;;8.40;99.90;;;;;;6182999;23;20101;-89
2021/10/14 07:18:50;;;;;;;8.30;2.72;;;8.50;99.90;;;;;;6182747;23;20464;-89
2021/10/14 07:21:16;;;;;;;11.38;2.58;;;8.60;99.90;;;;;;6182623;23;20072;-89
2021/10/14 07:23:42;;;;;;;9.65;3.05;;;8.70;99.90;;;;;;6156233;23;20250;-89
2021/10/14 07:26:07;;;;;;;6.55;2.65;;;8.80;99.90;;;;;;6157184;23;20012;-75
2021/10/14 07:28:33;;;;;;;7.00;2.30;;;8.80;99.90;;;;;;6182910;23;20012;-74
2021/10/14 07:30:59;;;;;;;11.77;3.00;;;8.80;99.90;;;;;;6182635;23;20005;-74
2021/10/14 07:33:24;;;;;;;6.00;2.20;;;8.90;99.90;;;;;;6182050;23;20051;-74
2021/10/14 07:35:50;;;;;;;8.25;3.10;;;8.90;99.90;;;;;;6182812;23;19997;-85
2021/10/14 07:38:16;;;;;;;7.82;2.17;;;8.90;99.90;;;;;;6181814;23;20021;-86
2021/10/14 07:40:43;;;;;;;4.47;2.38;;;9.00;99.90;;;;;;6155905;23;20011;-85
2021/10/14 07:43:11;;;;;;;6.70;2.70;;;9.10;99.90;;;;;;6155640;23;20402;-85
2021/10/14 07:45:37;;;;;;;13.07;3.30;;;9.20;99.90;;;;;;6182156;23;20068;-86
2021/10/14 07:48:03;;;;;;;5.90;2.03;;;9.30;99.90;;;;;;6181830;23;20461;-85
2021/10/14 07:50:29;;;;;;;5.97;2.55;;;9.30;99.90;;;;;;6182154;23;20051;-85
2021/10/14 07:52:54;;;;;;;7.88;2.65;;;9.40;99.90;;;;;;6181941;23;20005;-86
2021/10/14 07:55:20;;;;;;;6.82;2.53;;;9.50;99.90;;;;;;6182072;23;20675;-85
2021/10/14 07:57:46;;;;;;;6.22;2.15;;;9.60;99.90;;;;;;6181656;23;20001;-86
2021/10/14 08:00:12;;;;;;;10.73;2.85;;;9.60;99.90;;;;;;6181177;23;20005;-84
2021/10/14 08:02:41;;;;;;;8.88;3.13;;;9.70;99.90;;;;;;6182049;23;20009;-83
2021/10/14 08:05:07;;;;;;;7.70;2.70;;;9.90;99.90;;;;;;6181984;23;20049;-83
2021/10/14 08:07:33;;;;;;;6.88;2.60;;;9.90;99.90;;;;;;6182333;23;20312;-83
2021/10/14 08:10:00;;;;;;;6.78;2.40;;;10.00;99.90;;;;;;6182065;23;20008;-86
2021/10/14 08:12:26;;;;;;;6.32;2.90;;;10.00;99.90;;;;;;6182101;23;20001;-86
2021/10/14 08:14:53;;;;;;;6.80;2.70;;;10.10;99.90;;;;;;6155697;23;20005;-85
2021/10/14 08:17:18;;;;;;;6.53;2.70;;;10.20;99.90;;;;;;6181757;23;20005;-85
2021/10/14 08:19:44;;;;;;;6.28;2.47;;;10.40;99.90;;;;;;6182040;23;20080;-85
2021/10/14 08:22:10;;;;;;;7.75;2.88;;;10.40;99.90;;;;;;6155630;23;20002;-85
2021/10/14 08:24:37;;;;;;;7.65;3.10;;;10.40;99.90;;;;;;6181620;23;20012;-83
2021/10/14 08:27:04;;;;;;;7.45;3.05;;;10.50;99.90;;;;;;6182082;23;19997;-82
2021/10/14 08:29:30;;;;;;;10.60;2.92;;;10.60;99.90;;;;;;6182280;23;20011;-83
2021/10/14 08:31:57;;;;;;;6.93;2.88;;;10.70;99.90;;;;;;6181289;23;20067;-83
2021/10/14 08:34:23;;;;;;;9.48;3.22;;;10.80;99.90;;;;;;6181719;23;20012;-82
2021/10/14 08:36:49;;;;;;;15.93;3.08;;;10.80;99.90;;;;;;6155703;23;20072;-83
2021/10/14 08:39:14;;;;;;;6.13;3.00;;;10.80;99.90;;;;;;6181829;23;20008;-83
2021/10/14 08:41:44;;;;;;;6.85;3.13;;;10.90;99.90;;;;;;6155324;23;20357;-83
2021/10/14 08:44:13;;;;;;;5.25;2.97;;;11.00;99.90;;;;;;6181642;23;20064;-83
2021/10/14 08:46:40;;;;;;;6.38;3.00;;;11.10;99.90;;;;;;6181741;23;20008;-83
2021/10/14 08:49:08;;;;;;;7.93;3.30;;;11.30;99.90;;;;;;6181705;23;20486;-83
2021/10/14 08:51:35;;;;;;;12.52;3.05;;;11.40;99.90;;;;;;6181444;23;19997;-83
2021/10/14 08:54:01;;;;;;;7.70;3.97;;;11.50;99.90;;;;;;6155227;23;20445;-83
2021/10/14 08:56:28;;;;;;;10.15;3.33;;;11.60;99.90;;;;;;6182003;23;20004;-83
2021/10/14 08:58:54;;;;;;;15.45;3.65;;;11.70;99.90;;;;;;6181803;23;20092;-83
2021/10/14 09:01:20;;;;;;;12.93;3.70;;;11.80;99.90;;;;;;6181176;23;20029;-83
2021/10/14 09:03:49;;;;;;;7.30;2.50;;;11.90;99.90;;;;;;6182022;23;20001;-84
2021/10/14 09:06:16;;;;;;;5.97;2.80;;;12.10;99.90;;;;;;6181694;23;20020;-85
2021/10/14 09:08:50;;;;;;;8.23;3.42;;;12.20;99.90;;;;;;6181614;23;20351;-83
2021/10/14 09:11:16;;;;;;;;;;;12.30;99.90;;;;;;6182245;23;20052;-83
2021/10/14 09:13:55;;;;;;;6.13;2.50;;;12.40;99.90;;;;;;6181506;23;19978;-83
2021/10/14 09:16:32;;;;;;;5.07;2.78;;;12.50;99.90;;;;;;6181447;23;20477;-83
2021/10/14 09:19:20;;;;;;;45.13;4.50;;;12.60;99.90;;;;;;6181691;23;20386;-72
2021/10/14 09:21:58;;;;;;;4.20;2.20;;;12.70;99.90;;;;;;6181400;23;20001;-84
2021/10/14 09:24:30;;;;;;;4.72;2.22;;;12.80;99.90;;;;;;6181696;23;20001;-83
2021/10/14 09:26:57;;;;;;;3.53;2.50;;;12.80;99.90;;;;;;6181355;23;20084;-84
2021/10/14 09:29:25;;;;;;;4.13;1.90;;;12.90;99.90;;;;;;6181805;23;20004;-84
2021/10/14 09:31:53;;;;;;;6.75;2.17;;;13.10;99.90;;;;;;6181144;23;20008;-84
2021/10/14 09:34:27;;;;;;;5.55;2.22;;;13.10;99.90;;;;;;6181167;23;20072;-84
2021/10/14 09:36:54;;;;;;;6.00;1.88;;;13.20;99.90;;;;;;6182569;23;20004;-84
2021/10/14 09:39:20;;;;;;;4.40;2.10;;;13.30;99.90;;;;;;6184573;23;20367;-84
2021/10/14 09:41:45;;;;;;;3.85;2.08;;;13.40;99.90;;;;;;6186104;23;19997;-85
2021/10/14 09:44:18;;;;;;;5.65;1.95;;;13.50;99.90;;;;;;6186317;23;20000;-84
2021/10/14 09:46:49;;;;;;;4.95;2.00;;;13.60;99.90;;;;;;6189869;23;20399;-84
2021/10/14 09:49:30;;;;;;;3.47;1.83;;;13.70;99.90;;;;;;6190402;23;20016;-84
2021/10/14 09:52:00;;;;;;;4.80;1.85;;;13.70;99.90;;;;;;6157562;23;20084;-84
2021/10/14 09:54:27;;;;;;;5.03;1.70;;;13.80;99.90;;;;;;6183448;23;20005;-85
2021/10/14 09:56:53;;;;;;;3.88;1.83;;;13.90;99.90;;;;;;6183419;23;20193;-84
2021/10/14 09:59:19;;;;;;;3.90;2.00;;;13.90;99.90;;;;;;6184890;23;20013;-84
2021/10/14 10:01:45;;;;;;;6.32;1.70;;;13.90;99.90;;;;;;6183141;23;20442;-85
2021/10/14 10:04:10;;;;;;;4.95;2.28;;;14.00;99.90;;;;;;6182108;23;20320;-85
2021/10/14 10:06:38;;;;;;;7.15;2.20;;;14.10;99.90;;;;;;6183188;23;20116;-85
2021/10/14 10:09:09;;;;;;;3.83;1.85;;;14.20;99.90;;;;;;6183287;23;20020;-81
2021/10/14 10:11:40;;;;;;;6.60;1.90;;;14.30;99.90;;;;;;6183206;23;20001;-83
2021/10/14 10:14:06;;;;;;;4.68;2.13;;;14.40;99.90;;;;;;6182867;23;20012;-83
2021/10/14 10:16:32;;;;;;;4.78;1.85;;;14.50;99.90;;;;;;6182904;23;20008;-83
2021/10/14 10:18:59;;;;;;;4.43;2.03;;;14.60;99.90;;;;;;6182536;23;20013;-83
2021/10/14 10:21:31;;;;;;;4.43;1.80;;;14.60;99.90;;;;;;6188364;23;19989;-83
2021/10/14 10:24:01;;;;;;;5.38;1.63;;;14.70;99.90;;;;;;6167565;23;20019;-83
2021/10/14 10:26:30;;;;;;;6.55;1.92;;;14.70;99.90;;;;;;6189853;23;19997;-83
2021/10/14 10:28:55;;;;;;;4.93;2.00;;;14.70;99.90;;;;;;6186476;23;20411;-83
2021/10/14 10:31:21;;;;;;;2.83;1.60;;;14.70;99.90;;;;;;6182970;23;20008;-83
2021/10/14 10:33:57;;;;;;;3.95;1.77;;;14.80;99.90;;;;;;6184606;23;20367;-83
2021/10/14 10:36:51;;;;;;;3.65;1.85;;;14.90;99.90;;;;;;6185895;23;19997;-83
2021/10/14 10:39:47;;;;;;;4.28;1.85;;;15.00;99.90;;;;;;6184565;23;20089;-83
2021/10/14 10:42:38;;;;;;;3.17;1.63;;;15.00;99.90;;;;;;6190960;23;20174;-83
2021/10/14 10:45:10;;;;;;;4.65;1.73;;;15.10;99.90;;;;;;6131311;23;20009;-83
2021/10/14 10:47:38;;;;;;;6.43;1.75;;;15.20;99.90;;;;;;6185049;23;19997;-82
2021/10/14 10:50:25;;;;;;;4.50;1.75;;;15.30;99.90;;;;;;6185367;23;20338;-83
2021/10/14 10:53:02;;;;;;;4.60;2.10;;;15.40;99.90;;;;;;6182052;23;20049;-83
2021/10/14 10:55:28;;;;;;;4.60;2.17;;;15.50;99.90;;;;;;6181568;23;20346;-83
2021/10/14 10:57:55;;;;;;;4.85;1.60;;;15.50;99.60;;;;;;6156617;23;20014;-83
2021/10/14 11:00:22;;;;;;;3.00;1.55;;;15.60;99.90;;;;;;6183082;23;20378;-82
2021/10/14 11:03:22;;;;;;;3.10;1.55;;;15.70;99.10;;;;;;6181658;23;20005;-83
2021/10/14 11:05:53;;;;;;;4.03;1.73;;;15.70;98.80;;;;;;6181661;23;20001;-83
2021/10/14 11:08:25;;;;;;;5.15;1.90;;;15.90;98.80;;;;;;6181037;23;20039;-83
2021/10/14 11:10:56;;;;;;;5.63;1.50;;;16.00;98.20;;;;;;6179423;23;20071;-83
2021/10/14 11:13:24;;;;;;;5.45;1.83;;;16.00;97.80;;;;;;6179310;23;20482;-83
2021/10/14 11:15:52;;;;;;;5.68;2.30;;;16.20;97.40;;;;;;6179583;23;20005;-83
2021/10/14 11:18:23;;;;;;;3.35;1.65;;;16.30;97.00;;;;;;6180426;23;20008;-83
2021/10/14 11:21:03;;;;;;;3.17;1.27;;;16.40;97.00;;;;;;6180850;23;20077;-82
2021/10/14 11:23:37;;;;;;;3.88;1.67;;;16.50;96.50;;;;;;6180862;23;20008;-83
2021/10/14 11:26:23;;;;;;;2.97;1.45;;;16.60;96.30;;;;;;6183197;23;20338;-82
2021/10/14 11:28:53;;;;;;;2.20;1.17;;;16.50;95.60;;;;;;6182835;23;20001;-83
2021/10/14 11:31:32;;;;;;;3.80;1.38;;;16.50;95.90;;;;;;6183135;23;20452;-83
2021/10/14 11:34:07;;;;;;;4.28;1.55;;;16.60;94.90;;;;;;6182652;23;20025;-83
2021/10/14 11:36:33;;;;;;;3.58;1.63;;;16.80;95.00;;;;;;6182886;23;20012;-83
2021/10/14 11:39:19;;;;;;;1.70;0.90;;;16.80;93.50;;;;;;6182903;23;20044;-83
2021/10/14 11:41:51;;;;;;;6.60;1.27;;;16.90;93.40;;;;;;6182875;23;20047;-83
2021/10/14 11:44:17;;;;;;;3.40;1.30;;;17.00;93.30;;;;;;6182850;23;20024;-83
2021/10/14 11:46:45;;;;;;;3.97;1.27;;;17.10;91.80;;;;;;6182868;23;20008;-83
2021/10/14 11:49:12;;;;;;;2.15;0.88;;;17.20;92.30;;;;;;6181500;23;20017;-83
2021/10/14 11:51:38;;;;;;;4.10;1.48;;;17.20;92.40;;;;;;6181463;23;20005;-83
2021/10/14 11:54:12;;;;;;;3.17;1.90;;;17.30;92.80;;;;;;6181129;23;20478;-83
2021/10/14 11:56:53;;;;;;;3.03;1.30;;;17.30;93.40;;;;;;6180765;23;20430;-83
2021/10/14 11:59:28;;;;;;;6.10;1.30;;;17.40;91.50;;;;;;6181159;23;20020;-83
2021/10/14 12:02:22;;;;;;;1.73;0.82;;;17.40;90.90;;;;;;6181365;23;20021;-83
2021/10/14 12:04:50;;;;;;;4.72;1.50;;;17.50;90.90;;;;;;6181100;23;20001;-83
2021/10/14 12:07:18;;;;;;;2.90;1.20;;;17.60;90.70;;;;;;6181432;23;20201;-83
2021/10/14 12:09:44;;;;;;;5.95;1.60;;;17.60;90.80;;;;;;6181419;23;20001;-84
2021/10/14 12:12:12;;;;;;;4.35;1.20;;;17.60;91.10;;;;;;6181490;23;20080;-82
2021/10/14 12:14:38;;;;;;;3.85;1.60;;;17.70;90.50;;;;;;6181392;23;20052;-83
2021/10/14 12:17:09;;;;;;;3.28;1.30;;;17.80;90.40;;;;;;6181405;23;20062;-82
2021/10/14 12:19:40;;;;;;;3.42;1.30;;;17.80;89.90;;;;;;6181473;23;20013;-83
2021/10/14 12:22:08;;;;;;;4.78;1.35;;;17.80;89.40;;;;;;6181566;23;20001;-83
2021/10/14 12:24:55;;;;;;;4.40;1.50;;;17.90;89.90;;;;;;6182085;23;20005;-82
2021/10/14 12:27:21;;;;;;;3.15;1.33;;;18.00;90.20;;;;;;6181809;23;20081;-83
2021/10/14 12:29:48;;;;;;;2.60;1.38;;;18.00;90.40;;;;;;6181879;23;20049;-83
2021/10/14 12:32:20;;;;;;;5.57;1.30;;;18.10;90.30;;;;;;6181575;23;20088;-83
2021/10/14 12:34:56;;;;;;;2.75;1.30;;;18.10;87.80;;;;;;6181493;23;20001;-83
2021/10/14 12:37:30;;;;;;;5.78;1.50;;;18.10;89.80;;;;;;6181723;23;20012;-83
2021/10/14 12:40:23;;;;;;;3.28;1.10;;;18.20;87.60;;;;;;6181507;23;20020;-83
2021/10/14 12:48:35;;;;;;;4.03;1.60;;;18.50;88.10;;;;;;6130417;23;1194855;-83
2021/10/14 12:53:53;;;;;;;8.32;1.92;;;18.60;88.90;;;;;;6183420;23;20009;-82
2021/10/14 12:56:19;;;;;;;4.60;1.60;;;18.70;88.80;;;;;;6183115;23;19997;-83
2021/10/14 12:58:46;;;;;;;5.28;1.50;;;18.80;85.60;;;;;;6182755;23;20457;-83
2021/10/14 13:01:14;;;;;;;3.53;1.38;;;18.80;86.10;;;;;;6182870;23;20024;-83